sensor_id;sensor_type;location;lat;lon;timestamp;P1;durP1;ratioP1;P2;durP2;ratioP2
79130;SDS011;72396;45.194;9.142;2023-11-22T00:02:19;7.30;;;4.18;;
79130;SDS011;72396;45.194;9.142;2023-11-22T00:04:45;7.90;;;4.57;;
79130;SDS011;72396;45.194;9.142;2023-11-22T00:07:10;6.53;;;4.28;;
79130;SDS011;72396;45.194;9.142;2023-11-22T00:09:36;6.72;;;4.03;;
79130;SDS011;72396;45.194;9.142;2023-11-22T00:12:01;5.90;;;4.18;;
79130;SDS011;72396;45.194;9.142;2023-11-22T00:14:27;6.85;;;4.03;;
79130;SDS011;72396;45.194;9.142;2023-11-22T00:16:52;4.85;;;3.53;;
79130;SDS011;72396;45.194;9.142;2023-11-22T00:19:18;5.00;;;3.72;;
79130;SDS011;72396;45.194;9.142;2023-11-22T00:21:47;8.00;;;4.07;;
79130;SDS011;72396;45.194;9.142;2023-11-22T00:24:12;6.80;;;4.05;;
79130;SDS011;72396;45.194;9.142;2023-11-22T00:26:37;6.45;;;4.03;;
79130;SDS011;72396;45.194;9.142;2023-11-22T00:29:03;8.35;;;3.75;;
79130;SDS011;72396;45.194;9.142;2023-11-22T00:31:28;6.70;;;4.05;;
79130;SDS011;72396;45.194;9.142;2023-11-22T00:33:54;6.47;;;4.30;;
79130;SDS011;72396;45.194;9.142;2023-11-22T00:36:20;6.30;;;4.57;;
79130;SDS011;72396;45.194;9.142;2023-11-22T00:38:45;7.10;;;4.75;;
79130;SDS011;72396;45.194;9.142;2023-11-22T00:41:10;6.10;;;4.10;;
79130;SDS011;72396;45.194;9.142;2023-11-22T00:43:36;7.70;;;4.68;;
79130;SDS011;72396;45.194;9.142;2023-11-22T00:46:02;6.28;;;4.07;;
79130;SDS011;72396;45.194;9.142;2023-11-22T00:48:27;7.60;;;4.03;;
79130;SDS011;72396;45.194;9.142;2023-11-22T00:50:53;5.00;;;3.70;;
79130;SDS011;72396;45.194;9.142;2023-11-22T00:53:18;6.78;;;4.20;;
79130;SDS011;72396;45.194;9.142;2023-11-22T00:55:43;6.50;;;3.70;;
79130;SDS011;72396;45.194;9.142;2023-11-22T00:58:09;5.57;;;3.53;;
79130;SDS011;72396;45.194;9.142;2023-11-22T01:00:34;6.82;;;3.95;;
79130;SDS011;72396;45.194;9.142;2023-11-22T01:02:59;6.35;;;3.78;;
79130;SDS011;72396;45.194;9.142;2023-11-22T01:05:25;6.32;;;3.75;;
79130;SDS011;72396;45.194;9.142;2023-11-22T01:07:50;6.75;;;3.78;;
79130;SDS011;72396;45.194;9.142;2023-11-22T01:10:16;6.97;;;3.60;;
79130;SDS011;72396;45.194;9.142;2023-11-22T01:12:41;5.32;;;3.55;;
79130;SDS011;72396;45.194;9.142;2023-11-22T01:15:07;5.30;;;3.67;;
79130;SDS011;72396;45.194;9.142;2023-11-22T01:17:34;5.30;;;3.55;;
79130;SDS011;72396;45.194;9.142;2023-11-22T01:19:59;5.10;;;3.63;;
79130;SDS011;72396;45.194;9.142;2023-11-22T01:22:25;6.85;;;4.32;;
79130;SDS011;72396;45.194;9.142;2023-11-22T01:24:51;7.05;;;3.75;;
79130;SDS011;72396;45.194;9.142;2023-11-22T01:27:16;6.55;;;3.80;;
79130;SDS011;72396;45.194;9.142;2023-11-22T01:29:41;6.57;;;3.70;;
79130;SDS011;72396;45.194;9.142;2023-11-22T01:32:07;6.03;;;4.00;;
79130;SDS011;72396;45.194;9.142;2023-11-22T01:34:34;6.00;;;3.95;;
79130;SDS011;72396;45.194;9.142;2023-11-22T01:36:59;7.47;;;4.05;;
79130;SDS011;72396;45.194;9.142;2023-11-22T01:39:25;9.35;;;4.28;;
79130;SDS011;72396;45.194;9.142;2023-11-22T01:41:51;6.45;;;4.30;;
79130;SDS011;72396;45.194;9.142;2023-11-22T01:44:17;6.65;;;3.47;;
79130;SDS011;72396;45.194;9.142;2023-11-22T01:46:43;6.25;;;4.05;;
79130;SDS011;72396;45.194;9.142;2023-11-22T01:49:09;6.10;;;3.90;;
79130;SDS011;72396;45.194;9.142;2023-11-22T01:51:36;6.22;;;3.80;;
79130;SDS011;72396;45.194;9.142;2023-11-22T01:54:06;6.20;;;4.07;;
79130;SDS011;72396;45.194;9.142;2023-11-22T01:56:33;5.68;;;4.10;;
79130;SDS011;72396;45.194;9.142;2023-11-22T01:59:00;6.18;;;4.13;;
79130;SDS011;72396;45.194;9.142;2023-11-22T02:01:26;6.00;;;4.10;;
79130;SDS011;72396;45.194;9.142;2023-11-22T02:03:52;7.35;;;4.00;;
79130;SDS011;72396;45.194;9.142;2023-11-22T02:06:18;7.53;;;3.70;;
79130;SDS011;72396;45.194;9.142;2023-11-22T02:08:46;6.30;;;3.85;;
79130;SDS011;72396;45.194;9.142;2023-11-22T02:11:12;5.15;;;3.75;;
79130;SDS011;72396;45.194;9.142;2023-11-22T02:13:38;6.80;;;4.05;;
79130;SDS011;72396;45.194;9.142;2023-11-22T02:16:03;7.85;;;3.83;;
79130;SDS011;72396;45.194;9.142;2023-11-22T02:18:29;5.50;;;4.05;;
79130;SDS011;72396;45.194;9.142;2023-11-22T02:20:56;5.90;;;4.15;;
79130;SDS011;72396;45.194;9.142;2023-11-22T02:23:21;7.90;;;4.10;;
79130;SDS011;72396;45.194;9.142;2023-11-22T02:25:47;8.05;;;4.43;;
79130;SDS011;72396;45.194;9.142;2023-11-22T02:28:13;8.43;;;5.10;;
79130;SDS011;72396;45.194;9.142;2023-11-22T02:30:38;6.80;;;4.35;;
79130;SDS011;72396;45.194;9.142;2023-11-22T02:33:04;6.80;;;4.30;;
79130;SDS011;72396;45.194;9.142;2023-11-22T02:35:31;6.82;;;4.03;;
79130;SDS011;72396;45.194;9.142;2023-11-22T02:37:57;5.78;;;4.10;;
79130;SDS011;72396;45.194;9.142;2023-11-22T02:40:24;6.57;;;4.00;;
79130;SDS011;72396;45.194;9.142;2023-11-22T02:42:51;5.95;;;3.90;;
79130;SDS011;72396;45.194;9.142;2023-11-22T02:45:19;7.32;;;3.95;;
79130;SDS011;72396;45.194;9.142;2023-11-22T02:47:49;6.50;;;3.83;;
79130;SDS011;72396;45.194;9.142;2023-11-22T02:50:15;6.70;;;4.30;;
79130;SDS011;72396;45.194;9.142;2023-11-22T02:52:41;6.53;;;4.15;;
79130;SDS011;72396;45.194;9.142;2023-11-22T02:55:07;7.28;;;4.85;;
79130;SDS011;72396;45.194;9.142;2023-11-22T02:57:36;6.18;;;4.20;;
79130;SDS011;72396;45.194;9.142;2023-11-22T03:00:03;8.98;;;4.53;;
79130;SDS011;72396;45.194;9.142;2023-11-22T03:02:29;6.80;;;4.10;;
79130;SDS011;72396;45.194;9.142;2023-11-22T03:04:55;5.97;;;4.15;;
79130;SDS011;72396;45.194;9.142;2023-11-22T03:07:20;5.60;;;4.10;;
79130;SDS011;72396;45.194;9.142;2023-11-22T03:09:45;6.13;;;3.95;;
79130;SDS011;72396;45.194;9.142;2023-11-22T03:12:11;7.10;;;4.10;;
79130;SDS011;72396;45.194;9.142;2023-11-22T03:14:38;7.53;;;3.97;;
79130;SDS011;72396;45.194;9.142;2023-11-22T03:17:04;6.07;;;4.18;;
79130;SDS011;72396;45.194;9.142;2023-11-22T03:19:30;6.72;;;4.45;;
79130;SDS011;72396;45.194;9.142;2023-11-22T03:21:55;5.28;;;3.72;;
79130;SDS011;72396;45.194;9.142;2023-11-22T03:24:21;5.85;;;4.07;;
79130;SDS011;72396;45.194;9.142;2023-11-22T03:26:47;6.90;;;4.03;;
79130;SDS011;72396;45.194;9.142;2023-11-22T03:29:14;5.75;;;4.20;;
79130;SDS011;72396;45.194;9.142;2023-11-22T03:31:41;5.32;;;3.92;;
79130;SDS011;72396;45.194;9.142;2023-11-22T03:34:07;5.78;;;3.92;;
79130;SDS011;72396;45.194;9.142;2023-11-22T03:36:32;5.85;;;4.28;;
79130;SDS011;72396;45.194;9.142;2023-11-22T03:38:58;6.50;;;4.05;;
79130;SDS011;72396;45.194;9.142;2023-11-22T03:41:23;5.88;;;4.05;;
79130;SDS011;72396;45.194;9.142;2023-11-22T03:43:49;7.90;;;4.65;;
79130;SDS011;72396;45.194;9.142;2023-11-22T03:46:14;6.03;;;3.97;;
79130;SDS011;72396;45.194;9.142;2023-11-22T03:48:40;6.35;;;4.43;;
79130;SDS011;72396;45.194;9.142;2023-11-22T03:51:05;6.78;;;4.45;;
79130;SDS011;72396;45.194;9.142;2023-11-22T03:53:30;6.20;;;3.90;;
79130;SDS011;72396;45.194;9.142;2023-11-22T03:55:57;5.68;;;4.13;;
79130;SDS011;72396;45.194;9.142;2023-11-22T03:58:22;7.60;;;4.47;;
79130;SDS011;72396;45.194;9.142;2023-11-22T04:00:48;7.03;;;4.15;;
79130;SDS011;72396;45.194;9.142;2023-11-22T04:03:13;6.68;;;5.18;;
79130;SDS011;72396;45.194;9.142;2023-11-22T04:05:38;5.32;;;4.00;;
79130;SDS011;72396;45.194;9.142;2023-11-22T04:08:04;6.68;;;4.22;;
79130;SDS011;72396;45.194;9.142;2023-11-22T04:10:29;7.15;;;4.47;;
79130;SDS011;72396;45.194;9.142;2023-11-22T04:12:55;6.22;;;4.40;;
79130;SDS011;72396;45.194;9.142;2023-11-22T04:15:21;7.63;;;3.97;;
79130;SDS011;72396;45.194;9.142;2023-11-22T04:17:47;6.82;;;4.30;;
79130;SDS011;72396;45.194;9.142;2023-11-22T04:20:12;6.07;;;4.18;;
79130;SDS011;72396;45.194;9.142;2023-11-22T04:22:44;7.35;;;4.20;;
79130;SDS011;72396;45.194;9.142;2023-11-22T04:25:13;6.40;;;4.25;;
79130;SDS011;72396;45.194;9.142;2023-11-22T04:27:39;5.63;;;4.28;;
79130;SDS011;72396;45.194;9.142;2023-11-22T04:30:05;6.47;;;4.22;;
79130;SDS011;72396;45.194;9.142;2023-11-22T04:32:33;6.70;;;4.20;;
79130;SDS011;72396;45.194;9.142;2023-11-22T04:35:01;5.65;;;4.22;;
79130;SDS011;72396;45.194;9.142;2023-11-22T04:37:29;6.40;;;4.30;;
79130;SDS011;72396;45.194;9.142;2023-11-22T04:39:56;5.80;;;4.05;;
79130;SDS011;72396;45.194;9.142;2023-11-22T04:42:22;6.22;;;4.25;;
79130;SDS011;72396;45.194;9.142;2023-11-22T04:44:47;6.80;;;4.13;;
79130;SDS011;72396;45.194;9.142;2023-11-22T04:47:12;7.63;;;3.97;;
79130;SDS011;72396;45.194;9.142;2023-11-22T04:49:38;6.88;;;4.60;;
79130;SDS011;72396;45.194;9.142;2023-11-22T04:52:03;6.15;;;4.05;;
79130;SDS011;72396;45.194;9.142;2023-11-22T04:54:29;7.25;;;4.80;;
79130;SDS011;72396;45.194;9.142;2023-11-22T04:56:54;6.57;;;4.38;;
79130;SDS011;72396;45.194;9.142;2023-11-22T04:59:20;7.00;;;4.30;;
79130;SDS011;72396;45.194;9.142;2023-11-22T05:01:46;5.88;;;4.03;;
79130;SDS011;72396;45.194;9.142;2023-11-22T05:04:11;7.82;;;4.35;;
79130;SDS011;72396;45.194;9.142;2023-11-22T05:06:36;6.90;;;4.10;;
79130;SDS011;72396;45.194;9.142;2023-11-22T05:09:02;6.03;;;4.38;;
79130;SDS011;72396;45.194;9.142;2023-11-22T05:11:27;6.50;;;4.40;;
79130;SDS011;72396;45.194;9.142;2023-11-22T05:13:53;6.22;;;4.40;;
79130;SDS011;72396;45.194;9.142;2023-11-22T05:16:18;6.63;;;4.15;;
79130;SDS011;72396;45.194;9.142;2023-11-22T05:18:43;6.15;;;4.50;;
79130;SDS011;72396;45.194;9.142;2023-11-22T05:21:09;6.32;;;4.57;;
79130;SDS011;72396;45.194;9.142;2023-11-22T05:23:34;7.13;;;4.22;;
79130;SDS011;72396;45.194;9.142;2023-11-22T05:26:02;5.63;;;4.25;;
79130;SDS011;72396;45.194;9.142;2023-11-22T05:28:30;5.00;;;4.07;;
79130;SDS011;72396;45.194;9.142;2023-11-22T05:30:56;6.18;;;4.00;;
79130;SDS011;72396;45.194;9.142;2023-11-22T05:33:21;6.55;;;4.00;;
79130;SDS011;72396;45.194;9.142;2023-11-22T05:35:47;6.05;;;4.22;;
79130;SDS011;72396;45.194;9.142;2023-11-22T05:38:13;6.28;;;4.38;;
79130;SDS011;72396;45.194;9.142;2023-11-22T05:40:38;5.22;;;3.47;;
79130;SDS011;72396;45.194;9.142;2023-11-22T05:43:04;5.78;;;4.35;;
79130;SDS011;72396;45.194;9.142;2023-11-22T05:45:29;5.65;;;4.03;;
79130;SDS011;72396;45.194;9.142;2023-11-22T05:47:55;6.88;;;4.30;;
79130;SDS011;72396;45.194;9.142;2023-11-22T05:50:20;5.95;;;4.28;;
79130;SDS011;72396;45.194;9.142;2023-11-22T05:52:46;6.35;;;4.20;;
79130;SDS011;72396;45.194;9.142;2023-11-22T05:55:11;6.78;;;4.50;;
79130;SDS011;72396;45.194;9.142;2023-11-22T05:57:39;7.05;;;4.32;;
79130;SDS011;72396;45.194;9.142;2023-11-22T06:00:07;6.20;;;4.20;;
79130;SDS011;72396;45.194;9.142;2023-11-22T06:02:33;7.30;;;4.28;;
79130;SDS011;72396;45.194;9.142;2023-11-22T06:04:58;15.13;;;9.70;;
79130;SDS011;72396;45.194;9.142;2023-11-22T06:07:24;10.35;;;6.90;;
79130;SDS011;72396;45.194;9.142;2023-11-22T06:09:49;10.48;;;7.13;;
79130;SDS011;72396;45.194;9.142;2023-11-22T06:12:14;10.07;;;7.28;;
79130;SDS011;72396;45.194;9.142;2023-11-22T06:14:40;11.27;;;8.20;;
79130;SDS011;72396;45.194;9.142;2023-11-22T06:17:05;10.63;;;7.55;;
79130;SDS011;72396;45.194;9.142;2023-11-22T06:19:30;12.60;;;7.25;;
79130;SDS011;72396;45.194;9.142;2023-11-22T06:21:56;10.95;;;7.78;;
79130;SDS011;72396;45.194;9.142;2023-11-22T06:24:21;12.07;;;7.00;;
79130;SDS011;72396;45.194;9.142;2023-11-22T06:26:46;13.43;;;7.68;;
79130;SDS011;72396;45.194;9.142;2023-11-22T06:29:12;14.05;;;10.07;;
79130;SDS011;72396;45.194;9.142;2023-11-22T06:31:38;10.77;;;6.93;;
79130;SDS011;72396;45.194;9.142;2023-11-22T06:34:03;10.98;;;6.05;;
79130;SDS011;72396;45.194;9.142;2023-11-22T06:36:29;9.68;;;5.53;;
79130;SDS011;72396;45.194;9.142;2023-11-22T06:38:54;12.82;;;5.95;;
79130;SDS011;72396;45.194;9.142;2023-11-22T06:41:20;8.20;;;6.25;;
79130;SDS011;72396;45.194;9.142;2023-11-22T06:43:47;7.20;;;5.10;;
79130;SDS011;72396;45.194;9.142;2023-11-22T06:46:12;7.95;;;4.47;;
79130;SDS011;72396;45.194;9.142;2023-11-22T06:48:38;9.32;;;5.78;;
79130;SDS011;72396;45.194;9.142;2023-11-22T06:51:03;13.82;;;7.32;;
79130;SDS011;72396;45.194;9.142;2023-11-22T06:53:29;8.27;;;6.50;;
79130;SDS011;72396;45.194;9.142;2023-11-22T06:55:54;11.15;;;6.95;;
79130;SDS011;72396;45.194;9.142;2023-11-22T06:58:19;8.30;;;6.95;;
79130;SDS011;72396;45.194;9.142;2023-11-22T07:00:45;8.73;;;7.63;;
79130;SDS011;72396;45.194;9.142;2023-11-22T07:03:10;8.60;;;6.05;;
79130;SDS011;72396;45.194;9.142;2023-11-22T07:05:36;11.07;;;7.40;;
79130;SDS011;72396;45.194;9.142;2023-11-22T07:08:01;12.40;;;7.10;;
79130;SDS011;72396;45.194;9.142;2023-11-22T07:10:28;8.88;;;5.85;;
79130;SDS011;72396;45.194;9.142;2023-11-22T07:12:53;9.15;;;5.70;;
79130;SDS011;72396;45.194;9.142;2023-11-22T07:15:19;10.10;;;5.78;;
79130;SDS011;72396;45.194;9.142;2023-11-22T07:17:44;8.30;;;5.43;;
79130;SDS011;72396;45.194;9.142;2023-11-22T07:20:10;9.23;;;5.10;;
79130;SDS011;72396;45.194;9.142;2023-11-22T07:25:08;9.23;;;4.72;;
79130;SDS011;72396;45.194;9.142;2023-11-22T07:27:43;12.63;;;7.38;;
79130;SDS011;72396;45.194;9.142;2023-11-22T07:30:12;11.13;;;5.70;;
79130;SDS011;72396;45.194;9.142;2023-11-22T07:32:38;11.50;;;7.38;;
79130;SDS011;72396;45.194;9.142;2023-11-22T07:35:05;11.93;;;5.10;;
79130;SDS011;72396;45.194;9.142;2023-11-22T07:37:33;6.72;;;4.50;;
79130;SDS011;72396;45.194;9.142;2023-11-22T07:39:59;7.28;;;4.70;;
79130;SDS011;72396;45.194;9.142;2023-11-22T07:42:25;7.75;;;5.40;;
79130;SDS011;72396;45.194;9.142;2023-11-22T07:44:51;7.65;;;5.13;;
79130;SDS011;72396;45.194;9.142;2023-11-22T07:47:21;7.95;;;4.93;;
79130;SDS011;72396;45.194;9.142;2023-11-22T07:49:47;8.80;;;5.53;;
79130;SDS011;72396;45.194;9.142;2023-11-22T07:52:13;5.82;;;4.40;;
79130;SDS011;72396;45.194;9.142;2023-11-22T07:54:39;11.88;;;6.00;;
79130;SDS011;72396;45.194;9.142;2023-11-22T07:57:05;8.52;;;4.90;;
79130;SDS011;72396;45.194;9.142;2023-11-22T07:59:32;6.82;;;4.72;;
79130;SDS011;72396;45.194;9.142;2023-11-22T08:01:57;8.45;;;4.80;;
79130;SDS011;72396;45.194;9.142;2023-11-22T08:04:23;7.80;;;5.38;;
79130;SDS011;72396;45.194;9.142;2023-11-22T08:06:48;9.05;;;5.45;;
79130;SDS011;72396;45.194;9.142;2023-11-22T08:09:14;7.55;;;4.88;;
79130;SDS011;72396;45.194;9.142;2023-11-22T08:11:41;8.18;;;4.65;;
79130;SDS011;72396;45.194;9.142;2023-11-22T08:14:07;7.00;;;4.88;;
79130;SDS011;72396;45.194;9.142;2023-11-22T08:16:33;6.78;;;4.50;;
79130;SDS011;72396;45.194;9.142;2023-11-22T08:19:03;6.63;;;4.57;;
79130;SDS011;72396;45.194;9.142;2023-11-22T08:21:30;6.13;;;4.60;;
79130;SDS011;72396;45.194;9.142;2023-11-22T08:23:55;6.82;;;4.57;;
79130;SDS011;72396;45.194;9.142;2023-11-22T08:26:21;8.13;;;4.85;;
79130;SDS011;72396;45.194;9.142;2023-11-22T08:28:46;6.00;;;4.40;;
79130;SDS011;72396;45.194;9.142;2023-11-22T08:31:11;7.40;;;4.60;;
79130;SDS011;72396;45.194;9.142;2023-11-22T08:33:37;8.10;;;4.88;;
79130;SDS011;72396;45.194;9.142;2023-11-22T08:36:07;7.55;;;5.18;;
79130;SDS011;72396;45.194;9.142;2023-11-22T08:38:34;5.97;;;4.93;;
79130;SDS011;72396;45.194;9.142;2023-11-22T08:41:03;7.88;;;5.10;;
79130;SDS011;72396;45.194;9.142;2023-11-22T08:43:33;6.93;;;4.85;;
79130;SDS011;72396;45.194;9.142;2023-11-22T08:46:00;11.57;;;7.53;;
79130;SDS011;72396;45.194;9.142;2023-11-22T08:48:26;9.68;;;6.78;;
79130;SDS011;72396;45.194;9.142;2023-11-22T08:50:52;8.82;;;5.40;;
79130;SDS011;72396;45.194;9.142;2023-11-22T08:53:20;7.78;;;4.90;;
79130;SDS011;72396;45.194;9.142;2023-11-22T08:55:47;6.80;;;5.18;;
79130;SDS011;72396;45.194;9.142;2023-11-22T08:58:12;8.15;;;5.18;;
79130;SDS011;72396;45.194;9.142;2023-11-22T09:00:38;7.47;;;5.20;;
79130;SDS011;72396;45.194;9.142;2023-11-22T09:03:06;7.72;;;4.68;;
79130;SDS011;72396;45.194;9.142;2023-11-22T09:05:32;6.38;;;4.57;;
79130;SDS011;72396;45.194;9.142;2023-11-22T09:07:57;8.10;;;5.28;;
79130;SDS011;72396;45.194;9.142;2023-11-22T09:10:24;6.63;;;4.80;;
79130;SDS011;72396;45.194;9.142;2023-11-22T09:12:49;7.65;;;5.05;;
79130;SDS011;72396;45.194;9.142;2023-11-22T09:15:16;6.72;;;4.68;;
79130;SDS011;72396;45.194;9.142;2023-11-22T09:17:43;11.38;;;7.93;;
79130;SDS011;72396;45.194;9.142;2023-11-22T09:20:10;7.28;;;5.30;;
79130;SDS011;72396;45.194;9.142;2023-11-22T09:22:43;6.55;;;4.88;;
79130;SDS011;72396;45.194;9.142;2023-11-22T09:25:12;8.02;;;5.10;;
79130;SDS011;72396;45.194;9.142;2023-11-22T09:27:42;6.10;;;4.20;;
79130;SDS011;72396;45.194;9.142;2023-11-22T09:30:11;7.38;;;5.15;;
79130;SDS011;72396;45.194;9.142;2023-11-22T09:32:43;7.80;;;5.05;;
79130;SDS011;72396;45.194;9.142;2023-11-22T09:35:14;6.60;;;4.43;;
79130;SDS011;72396;45.194;9.142;2023-11-22T09:37:40;9.55;;;4.78;;
79130;SDS011;72396;45.194;9.142;2023-11-22T09:40:10;6.55;;;4.32;;
79130;SDS011;72396;45.194;9.142;2023-11-22T09:42:36;7.25;;;5.10;;
79130;SDS011;72396;45.194;9.142;2023-11-22T09:45:02;6.07;;;4.43;;
79130;SDS011;72396;45.194;9.142;2023-11-22T09:47:28;6.50;;;4.45;;
79130;SDS011;72396;45.194;9.142;2023-11-22T09:49:57;7.70;;;4.65;;
79130;SDS011;72396;45.194;9.142;2023-11-22T09:52:26;13.68;;;4.85;;
79130;SDS011;72396;45.194;9.142;2023-11-22T09:54:53;10.15;;;5.00;;
79130;SDS011;72396;45.194;9.142;2023-11-22T09:57:20;14.98;;;4.90;;
79130;SDS011;72396;45.194;9.142;2023-11-22T09:59:49;8.13;;;5.10;;
79130;SDS011;72396;45.194;9.142;2023-11-22T10:02:17;9.55;;;4.50;;
79130;SDS011;72396;45.194;9.142;2023-11-22T10:04:43;6.63;;;4.30;;
79130;SDS011;72396;45.194;9.142;2023-11-22T10:07:08;6.57;;;4.57;;
79130;SDS011;72396;45.194;9.142;2023-11-22T10:09:35;8.05;;;4.40;;
79130;SDS011;72396;45.194;9.142;2023-11-22T10:12:03;8.68;;;4.78;;
79130;SDS011;72396;45.194;9.142;2023-11-22T10:14:30;6.88;;;4.55;;
79130;SDS011;72396;45.194;9.142;2023-11-22T10:16:58;8.65;;;4.53;;
79130;SDS011;72396;45.194;9.142;2023-11-22T10:19:27;7.63;;;4.57;;
79130;SDS011;72396;45.194;9.142;2023-11-22T10:22:03;7.75;;;4.50;;
79130;SDS011;72396;45.194;9.142;2023-11-22T10:24:33;6.53;;;4.32;;
79130;SDS011;72396;45.194;9.142;2023-11-22T10:27:00;6.65;;;4.30;;
79130;SDS011;72396;45.194;9.142;2023-11-22T10:29:26;7.05;;;4.55;;
79130;SDS011;72396;45.194;9.142;2023-11-22T10:31:52;6.55;;;4.28;;
79130;SDS011;72396;45.194;9.142;2023-11-22T10:34:24;6.00;;;4.55;;
79130;SDS011;72396;45.194;9.142;2023-11-22T10:36:50;7.00;;;4.18;;
79130;SDS011;72396;45.194;9.142;2023-11-22T10:39:21;6.35;;;4.50;;
79130;SDS011;72396;45.194;9.142;2023-11-22T10:41:48;8.15;;;4.53;;
79130;SDS011;72396;45.194;9.142;2023-11-22T10:44:16;7.68;;;5.07;;
79130;SDS011;72396;45.194;9.142;2023-11-22T10:46:45;6.53;;;4.35;;
79130;SDS011;72396;45.194;9.142;2023-11-22T10:49:12;5.80;;;4.13;;
79130;SDS011;72396;45.194;9.142;2023-11-22T10:51:37;6.15;;;4.25;;
79130;SDS011;72396;45.194;9.142;2023-11-22T10:54:06;7.25;;;4.45;;
79130;SDS011;72396;45.194;9.142;2023-11-22T10:56:39;6.22;;;4.15;;
79130;SDS011;72396;45.194;9.142;2023-11-22T10:59:15;8.18;;;4.28;;
79130;SDS011;72396;45.194;9.142;2023-11-22T11:01:45;6.45;;;4.45;;
79130;SDS011;72396;45.194;9.142;2023-11-22T11:04:23;6.05;;;4.63;;
79130;SDS011;72396;45.194;9.142;2023-11-22T11:06:53;5.68;;;4.35;;
79130;SDS011;72396;45.194;9.142;2023-11-22T11:09:20;6.00;;;4.82;;
79130;SDS011;72396;45.194;9.142;2023-11-22T11:11:50;7.93;;;4.70;;
79130;SDS011;72396;45.194;9.142;2023-11-22T11:14:15;6.80;;;4.57;;
79130;SDS011;72396;45.194;9.142;2023-11-22T11:16:42;6.30;;;4.38;;
79130;SDS011;72396;45.194;9.142;2023-11-22T11:19:15;7.00;;;4.38;;
79130;SDS011;72396;45.194;9.142;2023-11-22T11:21:42;6.47;;;4.45;;
79130;SDS011;72396;45.194;9.142;2023-11-22T11:24:08;6.90;;;4.57;;
79130;SDS011;72396;45.194;9.142;2023-11-22T11:26:33;5.90;;;4.95;;
79130;SDS011;72396;45.194;9.142;2023-11-22T11:29:01;6.47;;;4.63;;
79130;SDS011;72396;45.194;9.142;2023-11-22T11:31:32;6.20;;;4.38;;
79130;SDS011;72396;45.194;9.142;2023-11-22T11:34:02;5.97;;;3.85;;
79130;SDS011;72396;45.194;9.142;2023-11-22T11:36:31;6.47;;;4.70;;
79130;SDS011;72396;45.194;9.142;2023-11-22T11:39:00;7.25;;;5.10;;
79130;SDS011;72396;45.194;9.142;2023-11-22T11:41:29;5.82;;;4.25;;
79130;SDS011;72396;45.194;9.142;2023-11-22T11:43:57;5.88;;;4.22;;
79130;SDS011;72396;45.194;9.142;2023-11-22T11:46:24;6.25;;;4.90;;
79130;SDS011;72396;45.194;9.142;2023-11-22T11:48:52;6.47;;;4.20;;
79130;SDS011;72396;45.194;9.142;2023-11-22T11:51:36;4.82;;;4.05;;
79130;SDS011;72396;45.194;9.142;2023-11-22T11:54:03;6.55;;;4.32;;
79130;SDS011;72396;45.194;9.142;2023-11-22T11:56:29;4.53;;;3.97;;
79130;SDS011;72396;45.194;9.142;2023-11-22T11:58:55;8.88;;;4.70;;
79130;SDS011;72396;45.194;9.142;2023-11-22T12:01:24;6.63;;;4.30;;
79130;SDS011;72396;45.194;9.142;2023-11-22T12:03:54;7.50;;;4.32;;
79130;SDS011;72396;45.194;9.142;2023-11-22T12:06:19;7.18;;;4.55;;
79130;SDS011;72396;45.194;9.142;2023-11-22T12:08:45;6.03;;;4.45;;
79130;SDS011;72396;45.194;9.142;2023-11-22T12:11:12;5.90;;;3.78;;
79130;SDS011;72396;45.194;9.142;2023-11-22T12:13:38;7.82;;;3.70;;
79130;SDS011;72396;45.194;9.142;2023-11-22T12:16:06;5.35;;;4.05;;
79130;SDS011;72396;45.194;9.142;2023-11-22T12:18:45;6.22;;;4.05;;
79130;SDS011;72396;45.194;9.142;2023-11-22T12:21:15;5.22;;;4.28;;
79130;SDS011;72396;45.194;9.142;2023-11-22T12:23:42;6.75;;;4.20;;
79130;SDS011;72396;45.194;9.142;2023-11-22T12:26:11;8.25;;;4.75;;
79130;SDS011;72396;45.194;9.142;2023-11-22T12:28:38;6.35;;;4.22;;
79130;SDS011;72396;45.194;9.142;2023-11-22T12:33:37;5.30;;;4.00;;
79130;SDS011;72396;45.194;9.142;2023-11-22T12:36:04;7.22;;;4.22;;
79130;SDS011;72396;45.194;9.142;2023-11-22T12:38:31;7.28;;;4.55;;
79130;SDS011;72396;45.194;9.142;2023-11-22T12:40:57;9.73;;;5.15;;
79130;SDS011;72396;45.194;9.142;2023-11-22T12:43:23;7.38;;;4.72;;
79130;SDS011;72396;45.194;9.142;2023-11-22T12:45:58;6.10;;;4.50;;
79130;SDS011;72396;45.194;9.142;2023-11-22T12:48:24;5.00;;;3.75;;
79130;SDS011;72396;45.194;9.142;2023-11-22T12:50:51;7.90;;;4.35;;
79130;SDS011;72396;45.194;9.142;2023-11-22T12:53:18;12.25;;;5.40;;
79130;SDS011;72396;45.194;9.142;2023-11-22T12:55:47;9.50;;;5.53;;
79130;SDS011;72396;45.194;9.142;2023-11-22T12:58:17;7.25;;;4.85;;
79130;SDS011;72396;45.194;9.142;2023-11-22T13:00:44;8.30;;;4.72;;
79130;SDS011;72396;45.194;9.142;2023-11-22T13:03:11;7.03;;;4.85;;
79130;SDS011;72396;45.194;9.142;2023-11-22T13:05:37;8.07;;;4.28;;
79130;SDS011;72396;45.194;9.142;2023-11-22T13:08:03;10.05;;;4.57;;
79130;SDS011;72396;45.194;9.142;2023-11-22T13:10:29;7.53;;;4.22;;
79130;SDS011;72396;45.194;9.142;2023-11-22T13:12:55;7.10;;;4.30;;
79130;SDS011;72396;45.194;9.142;2023-11-22T13:15:21;7.25;;;3.88;;
79130;SDS011;72396;45.194;9.142;2023-11-22T13:17:54;7.65;;;3.67;;
79130;SDS011;72396;45.194;9.142;2023-11-22T13:20:24;9.75;;;4.13;;
79130;SDS011;72396;45.194;9.142;2023-11-22T13:22:51;6.75;;;3.70;;
79130;SDS011;72396;45.194;9.142;2023-11-22T13:25:17;5.57;;;4.25;;
79130;SDS011;72396;45.194;9.142;2023-11-22T13:27:44;5.90;;;3.97;;
79130;SDS011;72396;45.194;9.142;2023-11-22T13:30:15;5.90;;;3.72;;
79130;SDS011;72396;45.194;9.142;2023-11-22T13:32:44;9.35;;;3.70;;
79130;SDS011;72396;45.194;9.142;2023-11-22T13:35:10;9.35;;;3.72;;
79130;SDS011;72396;45.194;9.142;2023-11-22T13:37:44;7.32;;;3.30;;
79130;SDS011;72396;45.194;9.142;2023-11-22T13:40:19;6.03;;;3.72;;
79130;SDS011;72396;45.194;9.142;2023-11-22T13:42:47;4.85;;;3.42;;
79130;SDS011;72396;45.194;9.142;2023-11-22T13:45:16;4.60;;;2.85;;
79130;SDS011;72396;45.194;9.142;2023-11-22T13:47:45;4.97;;;3.13;;
79130;SDS011;72396;45.194;9.142;2023-11-22T13:50:15;5.47;;;2.80;;
79130;SDS011;72396;45.194;9.142;2023-11-22T13:52:47;7.30;;;3.50;;
79130;SDS011;72396;45.194;9.142;2023-11-22T13:55:16;4.95;;;3.05;;
79130;SDS011;72396;45.194;9.142;2023-11-22T13:57:47;6.63;;;3.50;;
79130;SDS011;72396;45.194;9.142;2023-11-22T14:00:13;5.40;;;3.17;;
79130;SDS011;72396;45.194;9.142;2023-11-22T14:02:43;4.40;;;2.75;;
79130;SDS011;72396;45.194;9.142;2023-11-22T14:05:12;9.50;;;3.40;;
79130;SDS011;72396;45.194;9.142;2023-11-22T14:07:38;6.43;;;3.17;;
79130;SDS011;72396;45.194;9.142;2023-11-22T14:10:04;5.10;;;2.83;;
79130;SDS011;72396;45.194;9.142;2023-11-22T14:12:31;5.35;;;2.50;;
79130;SDS011;72396;45.194;9.142;2023-11-22T14:14:57;11.10;;;3.47;;
79130;SDS011;72396;45.194;9.142;2023-11-22T14:17:23;8.50;;;3.35;;
79130;SDS011;72396;45.194;9.142;2023-11-22T14:19:50;9.40;;;3.35;;
79130;SDS011;72396;45.194;9.142;2023-11-22T14:22:15;5.30;;;3.20;;
79130;SDS011;72396;45.194;9.142;2023-11-22T14:24:42;6.05;;;2.80;;
79130;SDS011;72396;45.194;9.142;2023-11-22T14:27:09;7.70;;;3.15;;
79130;SDS011;72396;45.194;9.142;2023-11-22T14:29:35;4.88;;;2.92;;
79130;SDS011;72396;45.194;9.142;2023-11-22T14:32:01;4.82;;;2.80;;
79130;SDS011;72396;45.194;9.142;2023-11-22T14:34:27;7.07;;;3.08;;
79130;SDS011;72396;45.194;9.142;2023-11-22T14:36:52;5.47;;;2.80;;
79130;SDS011;72396;45.194;9.142;2023-11-22T14:39:17;4.05;;;2.90;;
79130;SDS011;72396;45.194;9.142;2023-11-22T14:41:44;6.03;;;2.67;;
79130;SDS011;72396;45.194;9.142;2023-11-22T14:44:10;5.18;;;3.05;;
79130;SDS011;72396;45.194;9.142;2023-11-22T14:46:35;6.95;;;3.00;;
79130;SDS011;72396;45.194;9.142;2023-11-22T14:49:02;4.70;;;2.55;;